Time;durP1;ratioP1;P1;durP2;ratioP2;P2;SDS_P1;SDS_P2;PMS_P1;PMS_P2;Temp;Humidity;BMP_temperature;BMP_pressure;BME280_temperature;BME280_humidity;BME280_pressure;Samples;Min_cycle;Max_cycle;Signal;HPM_P1;HPM_P2
2021/07/08 00:00:28;;;;;;;7.28;5.40;;;;;;;15.86;99.72;93730.05;1847340;77;21508;-77
2021/07/08 00:02:55;;;;;;;6.72;5.80;;;;;;;15.89;99.01;93730.58;1845750;77;21382;-75
2021/07/08 00:05:23;;;;;;;7.72;5.80;;;;;;;15.85;98.98;93723.80;1843404;77;21081;-76
2021/07/08 00:07:51;;;;;;;5.75;5.25;;;;;;;15.86;98.72;93736.90;1842092;77;21153;-77
2021/07/08 00:10:22;;;;;;;6.47;5.67;;;;;;;15.81;98.72;93734.66;1843436;77;20934;-76
2021/07/08 00:12:48;;;;;;;6.47;5.28;;;;;;;15.73;99.06;93735.39;1844549;77;20987;-73
2021/07/08 00:15:18;;;;;;;7.80;5.12;;;;;;;15.70;99.57;93731.51;1848292;77;21508;-74
2021/07/08 00:17:44;;;;;;;11.15;5.92;;;;;;;15.73;99.56;93740.88;1850481;76;21099;-75
2021/07/08 00:20:14;;;;;;;7.97;5.17;;;;;;;15.77;98.64;93734.13;1847358;77;21077;-77
2021/07/08 00:22:41;;;;;;;6.28;5.45;;;;;;;15.76;98.18;93733.18;1843253;76;21046;-75
2021/07/08 00:25:13;;;;;;;7.50;5.60;;;;;;;15.67;98.34;93728.83;1848654;77;21503;-75
2021/07/08 00:27:40;;;;;;;7.92;6.00;;;;;;;15.62;99.05;93730.67;1849486;77;21017;-74
2021/07/08 00:30:07;;;;;;;7.90;6.20;;;;;;;15.66;99.21;93732.77;1845191;77;21494;-76
2021/07/08 00:32:35;;;;;;;6.90;5.70;;;;;;;15.71;98.83;93730.31;1843183;77;21006;-75
2021/07/08 00:35:03;;;;;;;8.38;5.97;;;;;;;15.70;98.76;93729.37;1844946;77;21066;-72
2021/07/08 00:37:30;;;;;;;7.47;6.03;;;;;;;15.71;98.27;93733.05;1843470;77;21174;-74
2021/07/08 00:39:57;;;;;;;8.00;5.67;;;;;;;15.70;98.16;93729.37;1842866;77;20975;-74
2021/07/08 00:42:23;;;;;;;8.45;5.97;;;;;;;15.72;97.89;93726.97;1843115;77;21502;-75
2021/07/08 00:44:51;;;;;;;6.37;5.78;;;;;;;15.65;97.81;93723.78;1843257;76;21444;-77
2021/07/08 00:47:17;;;;;;;8.88;5.97;;;;;;;15.58;97.95;93721.14;1844156;77;21033;-74
2021/07/08 00:49:44;;;;;;;6.47;5.85;;;;;;;15.54;98.49;93726.69;1849474;77;21065;-76
2021/07/08 00:52:11;;;;;;;5.97;5.37;;;;;;;15.53;98.62;93725.14;1850098;77;21527;-75
2021/07/08 00:54:39;;;;;;;7.05;5.05;;;;;;;15.56;98.42;93718.03;1823699;76;21093;-76
2021/07/08 00:57:06;;;;;;;10.63;5.95;;;;;;;15.60;97.96;93724.81;1786506;78;21073;-76
2021/07/08 00:59:41;;;;;;;6.97;5.92;;;;;;;15.61;97.48;93723.05;1815137;79;21528;-75
2021/07/08 01:02:10;;;;;;;7.53;5.58;;;;;;;15.50;97.23;93723.84;1812924;78;22180;-77
2021/07/08 01:04:36;;;;;;;6.85;6.00;;;;;;;15.38;97.99;93721.68;1815573;79;21092;-77
2021/07/08 01:07:03;;;;;;;8.83;5.75;;;;;;;15.34;98.06;93723.11;1814860;79;21933;-77
2021/07/08 01:09:30;;;;;;;8.88;5.75;;;;;;;15.29;98.08;93718.89;1814163;79;21512;-76
2021/07/08 01:11:57;;;;;;;10.63;6.97;;;;;;;15.24;98.24;93724.09;1814638;79;21077;-77
2021/07/08 01:14:23;;;;;;;8.48;7.62;;;;;;;15.22;98.88;93723.11;1815339;79;21088;-74
2021/07/08 01:16:51;;;;;;;9.23;7.83;;;;;;;15.25;99.29;93726.39;1814742;79;21005;-75
2021/07/08 01:19:18;;;;;;;9.00;6.22;;;;;;;15.29;99.66;93726.34;1814060;79;21082;-75
2021/07/08 01:21:46;;;;;;;9.00;6.55;;;;;;;15.32;99.59;93724.73;1837742;77;21022;-76
2021/07/08 01:24:12;;;;;;;11.70;6.67;;;;;;;15.33;99.57;93726.28;1846276;77;21489;-73
2021/07/08 01:26:40;;;;;;;9.70;6.30;;;;;;;15.34;99.36;93723.70;1846611;77;20991;-75
2021/07/08 01:29:07;;;;;;;9.95;6.40;;;;;;;15.34;98.92;93720.97;1845735;77;21026;-76
2021/07/08 01:31:33;;;;;;;6.87;5.78;;;;;;;15.30;98.67;93721.80;1843758;77;21114;-76
2021/07/08 01:34:00;;;;;;;6.83;5.58;;;;;;;15.23;98.59;93721.15;1843172;77;21022;-78
2021/07/08 01:36:26;;;;;;;7.62;6.28;;;;;;;15.15;98.64;93718.35;1843744;77;21003;-77
2021/07/08 01:38:52;;;;;;;5.72;5.10;;;;;;;15.07;98.96;93721.80;1843979;77;21014;-74
2021/07/08 01:41:19;;;;;;;7.75;5.80;;;;;;;15.09;99.13;93722.77;1843126;77;21137;-78
2021/07/08 01:43:46;;;;;;;7.30;6.00;;;;;;;15.01;98.99;93716.05;1850099;77;21579;-77
2021/07/08 01:46:16;;;;;;;6.85;6.17;;;;;;;15.00;98.89;93715.84;1850159;77;21540;-78
2021/07/08 01:48:43;;;;;;;6.90;6.30;;;;;;;14.96;99.23;93714.36;1845848;76;21556;-76
2021/07/08 01:51:32;;;;;;;7.80;5.75;;;;;;;14.97;99.75;93720.00;1842388;77;21081;-75
2021/07/08 01:53:59;;;;;;;6.85;6.15;;;;;;;15.01;99.62;93720.15;1843451;77;21013;-76
2021/07/08 01:56:26;;;;;;;6.80;5.45;;;;;;;15.04;99.19;93719.33;1843932;77;21658;-78
2021/07/08 01:58:53;;;;;;;6.25;5.65;;;;;;;15.09;98.80;93716.70;1849531;77;21025;-76
2021/07/08 02:01:21;;;;;;;7.35;6.12;;;;;;;15.11;98.37;93716.27;1850651;77;21057;-75
2021/07/08 02:03:48;;;;;;;7.10;6.40;;;;;;;15.14;98.09;93716.81;1845247;77;21097;-77
2021/07/08 02:06:15;;;;;;;7.50;6.80;;;;;;;15.16;98.13;93718.55;1845603;77;21040;-77
2021/07/08 02:08:42;;;;;;;7.00;6.30;;;;;;;15.15;98.28;93718.35;1849329;77;21519;-78
2021/07/08 02:11:10;;;;;;;10.40;6.75;;;;;;;15.13;98.25;93717.41;1847720;77;20994;-76
2021/07/08 02:13:37;;;;;;;7.25;6.55;;;;;;;15.10;98.16;93716.09;1813575;79;21433;-77
2021/07/08 02:16:05;;;;;;;8.18;6.35;;;;;;;15.02;98.28;93716.21;1835130;77;21037;-75
2021/07/08 02:18:32;;;;;;;6.75;6.05;;;;;;;14.95;98.55;93717.69;1842622;77;21030;-76
2021/07/08 02:20:59;;;;;;;6.17;5.67;;;;;;;14.93;99.02;93722.03;1843430;77;21608;-77
2021/07/08 02:23:25;;;;;;;10.72;7.22;;;;;;;14.89;99.18;93718.57;1846115;77;21034;-77
2021/07/08 02:25:52;;;;;;;7.72;6.85;;;;;;;14.91;99.55;93722.45;1817535;78;21037;-76
2021/07/08 02:28:18;;;;;;;6.92;6.22;;;;;;;14.92;99.04;93719.11;1815016;78;21034;-75
2021/07/08 02:30:44;;;;;;;9.93;6.33;;;;;;;14.89;98.85;93724.05;1815164;79;21084;-77
2021/07/08 02:33:11;;;;;;;6.78;6.08;;;;;;;14.85;99.14;93721.96;1813865;79;21128;-76
2021/07/08 02:35:38;;;;;;;9.23;5.85;;;;;;;14.86;99.03;93727.04;1814583;79;21615;-75
2021/07/08 02:38:05;;;;;;;9.28;6.20;;;;;;;14.83;99.09;93727.09;1814664;79;21604;-77
2021/07/08 02:40:34;;;;;;;6.83;6.12;;;;;;;14.83;99.58;93726.49;1841007;77;21017;-77
2021/07/08 02:43:01;;;;;;;7.33;5.87;;;;;;;14.82;100.00;93727.69;1843331;77;21017;-77
2021/07/08 02:45:30;;;;;;;6.58;5.70;;;;;;;14.85;100.00;93728.80;1843551;77;21065;-77
2021/07/08 02:47:58;;;;;;;9.70;6.03;;;;;;;14.89;100.00;93733.03;1844674;77;21531;-76
2021/07/08 02:50:26;;;;;;;8.53;5.42;;;;;;;14.93;99.98;93740.62;1848569;77;21563;-75
2021/07/08 02:52:52;;;;;;;6.33;5.72;;;;;;;14.88;99.36;93736.97;1848952;77;21010;-77
2021/07/08 02:55:19;;;;;;;6.78;5.92;;;;;;;14.81;99.71;93741.95;1844019;77;21026;-77
2021/07/08 02:57:45;;;;;;;5.83;5.20;;;;;;;14.79;100.00;93742.20;1846958;77;21088;-76
2021/07/08 03:00:14;;;;;;;7.55;6.20;;;;;;;14.80;100.00;93736.30;1848307;77;21003;-77
2021/07/08 03:02:41;;;;;;;6.80;6.20;;;;;;;14.86;100.00;93739.95;1848354;77;21033;-76
2021/07/08 03:05:09;;;;;;;7.15;5.50;;;;;;;14.83;100.00;93740.18;1843094;77;21334;-75
2021/07/08 03:07:38;;;;;;;6.95;5.60;;;;;;;14.80;100.00;93745.11;1842963;77;21054;-75
2021/07/08 03:10:07;;;;;;;7.12;6.03;;;;;;;14.85;100.00;93746.00;1843886;76;22572;-78
2021/07/08 03:12:35;;;;;;;6.67;6.08;;;;;;;14.90;100.00;93751.03;1845548;76;21006;-79
2021/07/08 03:15:05;;;;;;;6.05;5.45;;;;;;;14.95;100.00;93749.78;1849320;77;21571;-77
2021/07/08 03:17:32;;;;;;;6.40;5.42;;;;;;;14.95;100.00;93756.02;1849367;77;20993;-77
2021/07/08 03:19:59;;;;;;;8.70;6.72;;;;;;;14.88;100.00;93757.50;1848269;77;21025;-76
2021/07/08 03:22:26;;;;;;;6.90;5.97;;;;;;;14.80;100.00;93762.31;1821566;77;21182;-76
2021/07/08 03:24:53;;;;;;;7.25;5.95;;;;;;;14.71;100.00;93759.92;1829799;77;21014;-76
2021/07/08 03:27:19;;;;;;;7.35;6.60;;;;;;;14.67;100.00;93761.34;1843606;77;21065;-74
2021/07/08 03:29:46;;;;;;;6.30;5.70;;;;;;;14.65;100.00;93769.17;1843691;77;21017;-76
2021/07/08 03:32:12;;;;;;;7.75;5.80;;;;;;;14.63;100.00;93767.45;1844064;77;21101;-78
2021/07/08 03:34:40;;;;;;;7.10;6.03;;;;;;;14.62;100.00;93768.63;1849490;77;21455;-76
2021/07/08 03:37:08;;;;;;;8.78;6.42;;;;;;;14.65;100.00;93764.30;1852490;77;21001;-75
2021/07/08 03:39:35;;;;;;;8.58;6.60;;;;;;;14.67;100.00;93766.81;1850335;77;21041;-73
2021/07/08 03:42:02;;;;;;;7.62;6.65;;;;;;;14.69;100.00;93769.89;1846376;76;21081;-74
2021/07/08 03:44:28;;;;;;;7.08;5.95;;;;;;;14.73;100.00;93768.48;1851508;77;21009;-77
2021/07/08 03:46:54;;;;;;;8.48;7.03;;;;;;;14.81;100.00;93771.29;1849006;77;21106;-76
2021/07/08 03:49:21;;;;;;;6.75;5.95;;;;;;;14.86;100.00;93770.84;1825170;77;21033;-76
2021/07/08 03:51:47;;;;;;;8.20;6.55;;;;;;;14.97;100.00;93772.83;1826723;77;21069;-76
2021/07/08 03:54:13;;;;;;;7.72;6.22;;;;;;;15.06;100.00;93772.30;1842551;77;21081;-75
2021/07/08 03:56:40;;;;;;;9.00;6.78;;;;;;;15.12;100.00;93779.44;1842001;77;21547;-74
2021/07/08 03:59:07;;;;;;;76.30;34.58;;;;;;;15.19;100.00;93778.73;1842509;77;21115;-77
2021/07/08 04:01:33;;;;;;;92.53;41.50;;;;;;;15.29;100.00;93775.65;1842888;77;21643;-76
2021/07/08 04:04:00;;;;;;;252.43;110.72;;;;;;;15.37;100.00;93779.05;1845319;76;21068;-77
2021/07/08 04:06:26;;;;;;;122.53;55.23;;;;;;;15.41;100.00;93786.01;1840173;76;21006;-75
2021/07/08 04:08:52;;;;;;;48.40;24.90;;;;;;;15.46;100.00;93786.16;1817166;78;21018;-77
2021/07/08 04:11:18;;;;;;;77.55;36.23;;;;;;;15.50;100.00;93782.75;1815001;79;22166;-75
2021/07/08 04:13:45;;;;;;;21.40;12.90;;;;;;;15.59;100.00;93781.61;1814761;79;21065;-75
2021/07/08 04:16:13;;;;;;;11.33;7.45;;;;;;;15.68;100.00;93783.25;1813722;79;21916;-78
2021/07/08 04:18:39;;;;;;;11.30;7.62;;;;;;;15.77;100.00;93782.09;1814837;79;21065;-77
2021/07/08 04:21:06;;;;;;;13.08;8.98;;;;;;;15.86;100.00;93782.91;1814899;79;21559;-74
2021/07/08 04:23:32;;;;;;;32.55;16.25;;;;;;;15.91;100.00;93776.96;1814882;79;21323;-75
2021/07/08 04:25:59;;;;;;;255.67;114.88;;;;;;;15.95;100.00;93781.78;1838840;77;21041;-77
2021/07/08 04:28:25;;;;;;;106.90;49.75;;;;;;;16.01;100.00;93782.05;1841650;77;21053;-75
2021/07/08 04:30:51;;;;;;;123.92;54.25;;;;;;;16.09;100.00;93786.80;1842785;77;21090;-76
2021/07/08 04:33:18;;;;;;;113.05;50.10;;;;;;;16.14;100.00;93787.70;1843704;76;21255;-76
2021/07/08 04:35:45;;;;;;;102.25;45.05;;;;;;;16.21;100.00;93790.28;1848211;77;21121;-75
2021/07/08 04:38:13;;;;;;;98.33;43.73;;;;;;;16.27;100.00;93791.35;1818227;77;21093;-75
2021/07/08 04:40:39;;;;;;;98.78;47.25;;;;;;;16.32;100.00;93796.34;1814587;78;21033;-76
2021/07/08 04:43:07;;;;;;;56.65;32.40;;;;;;;16.40;100.00;93799.74;1826692;77;21002;-75
2021/07/08 04:45:34;;;;;;;31.55;19.42;;;;;;;16.46;100.00;93802.92;1842025;77;21569;-75
2021/07/08 04:48:00;;;;;;;28.45;18.45;;;;;;;16.55;100.00;93799.63;1842451;77;21080;-75
2021/07/08 04:50:27;;;;;;;19.00;12.85;;;;;;;16.64;100.00;93797.67;1842932;77;21450;-77
2021/07/08 04:52:54;;;;;;;13.28;10.58;;;;;;;16.74;100.00;93806.31;1842163;77;21084;-76
2021/07/08 04:55:22;;;;;;;12.47;9.90;;;;;;;16.81;100.00;93805.37;1841660;77;21320;-76
2021/07/08 04:57:50;;;;;;;11.70;10.50;;;;;;;16.87;100.00;93805.05;1843877;77;20906;-78
2021/07/08 05:00:21;;;;;;;11.85;10.03;;;;;;;16.94;100.00;93808.41;1843794;77;21086;-79
2021/07/08 05:02:50;;;;;;;11.03;9.88;;;;;;;17.04;100.00;93812.14;1820004;77;20852;-76
2021/07/08 05:05:17;;;;;;;10.63;9.55;;;;;;;17.18;100.00;93815.91;1843398;77;21029;-77
2021/07/08 05:07:44;;;;;;;13.32;10.32;;;;;;;17.33;100.00;93807.34;1826175;76;21182;-75
2021/07/08 05:10:13;;;;;;;11.28;8.83;;;;;;;17.50;100.00;93815.78;1814942;77;21044;-76
2021/07/08 05:12:41;;;;;;;13.50;10.60;;;;;;;17.67;100.00;93816.53;1814655;79;21537;-80
2021/07/08 05:15:13;;;;;;;11.48;9.73;;;;;;;17.88;100.00;93818.02;1815146;79;20960;-77
2021/07/08 05:17:40;;;;;;;12.18;10.05;;;;;;;18.17;100.00;93817.45;1816487;77;20898;-76
2021/07/08 05:20:07;;;;;;;12.05;9.75;;;;;;;18.55;99.21;93812.68;1760908;79;20982;-77
2021/07/08 05:22:37;;;;;;;11.15;9.60;;;;;;;18.91;97.28;93815.80;1777833;79;21335;-75
2021/07/08 05:25:07;;;;;;;8.15;7.33;;;;;;;19.23;95.60;93816.84;1843987;77;21647;-77
2021/07/08 05:27:33;;;;;;;10.85;7.87;;;;;;;19.53;93.08;93822.39;1825171;77;21042;-76
2021/07/08 05:30:00;;;;;;;9.83;8.80;;;;;;;19.82;91.35;93817.53;1812285;77;21081;-78
2021/07/08 05:32:28;;;;;;;9.45;8.45;;;;;;;20.11;89.88;93821.47;1834528;77;21017;-78
2021/07/08 05:34:54;;;;;;;8.65;7.75;;;;;;;20.47;87.94;93820.23;1836743;77;21646;-75
2021/07/08 05:37:20;;;;;;;9.58;8.40;;;;;;;20.88;85.18;93817.63;1829928;77;21079;-78
2021/07/08 05:39:47;;;;;;;10.05;7.92;;;;;;;21.36;82.44;93812.66;1807409;78;21097;-77
2021/07/08 05:42:13;;;;;;;8.50;7.70;;;;;;;21.77;79.80;93822.48;1772736;79;21066;-75
2021/07/08 05:44:40;;;;;;;9.33;8.18;;;;;;;22.02;78.06;93819.47;1790268;79;21031;-76
2021/07/08 05:47:06;;;;;;;10.20;7.30;;;;;;;22.13;76.63;93819.02;1778912;79;21010;-74
2021/07/08 05:49:33;;;;;;;7.45;6.80;;;;;;;22.15;76.65;93822.11;1779163;80;21686;-76
2021/07/08 05:51:59;;;;;;;11.88;8.15;;;;;;;22.10;77.26;93821.94;1797864;78;21050;-77
2021/07/08 05:56:57;;;;;;;11.57;7.35;;;;;;;22.15;76.99;93816.58;1847941;76;22622;-77
2021/07/08 05:59:25;;;;;;;9.70;7.58;;;;;;;22.13;76.23;93819.64;1783345;78;21088;-77
2021/07/08 06:01:51;;;;;;;9.00;8.20;;;;;;;22.28;76.21;93820.61;1768075;79;21093;-78
2021/07/08 06:04:19;;;;;;;8.70;7.83;;;;;;;22.63;75.54;93815.52;1800514;77;21017;-79
2021/07/08 06:06:46;;;;;;;9.83;7.37;;;;;;;23.11;73.80;93815.78;1843256;77;21138;-77
2021/07/08 06:09:18;;;;;;;8.65;7.72;;;;;;;23.56;71.70;93816.09;1770652;80;21148;-78
2021/07/08 06:11:50;;;;;;;8.23;7.42;;;;;;;23.82;70.37;93816.45;1780564;76;20923;-78
2021/07/08 06:14:17;;;;;;;11.48;7.97;;;;;;;23.96;69.36;93817.16;1817543;76;22625;-77
2021/07/08 06:16:44;;;;;;;9.10;7.78;;;;;;;24.06;68.74;93816.46;1800281;78;20911;-76
2021/07/08 06:19:11;;;;;;;8.23;7.37;;;;;;;24.09;69.13;93805.80;1782920;79;20924;-75
2021/07/08 06:21:37;;;;;;;10.23;9.18;;;;;;;24.19;69.25;93811.45;1841134;76;21385;-75
2021/07/08 06:24:07;;;;;;;9.45;8.55;;;;;;;24.27;68.38;93802.90;1832007;78;20926;-77
2021/07/08 06:26:33;;;;;;;9.25;8.20;;;;;;;24.34;67.17;93803.92;1806513;77;21050;-78
2021/07/08 06:29:02;;;;;;;8.25;7.40;;;;;;;24.22;67.56;93804.33;1799770;79;20887;-77
2021/07/08 06:31:30;;;;;;;8.40;7.53;;;;;;;24.13;68.02;93806.39;1811699;78;21536;-76
2021/07/08 06:33:57;;;;;;;9.83;8.83;;;;;;;24.12;68.89;93800.06;1831454;77;21517;-76
2021/07/08 06:36:25;;;;;;;8.70;7.80;;;;;;;24.13;68.37;93805.00;1799272;79;20942;-75
2021/07/08 06:38:57;;;;;;;8.53;6.53;;;;;;;24.03;68.43;93801.50;1830886;77;21086;-77
2021/07/08 06:41:23;;;;;;;7.33;6.62;;;;;;;23.95;68.54;93800.32;1805111;78;20888;-74
2021/07/08 06:43:50;;;;;;;9.85;7.40;;;;;;;23.87;69.02;93793.59;1809211;78;21505;-77
2021/07/08 06:46:17;;;;;;;8.48;6.40;;;;;;;23.81;69.15;93793.48;1819049;78;20879;-78
2021/07/08 06:51:11;;;;;;;9.23;6.58;;;;;;;23.77;69.77;93793.48;1805175;77;21154;-79
2021/07/08 06:53:38;;;;;;;8.25;7.17;;;;;;;23.79;69.01;93788.24;1802879;77;21006;-77
2021/07/08 06:56:05;;;;;;;7.37;6.62;;;;;;;23.77;69.30;93789.32;1793317;79;21384;-78
2021/07/08 07:00:52;;;;;;;9.10;6.12;;;;;;;23.83;67.07;93786.05;1847756;75;23745;-76
2021/07/08 07:03:18;;;;;;;7.80;7.10;;;;;;;23.79;67.87;93791.78;1829193;77;21096;-77
2021/07/08 07:05:45;;;;;;;8.58;7.33;;;;;;;23.85;67.43;93789.91;1819408;77;21508;-78
2021/07/08 07:08:13;;;;;;;7.85;6.40;;;;;;;23.94;68.37;93784.28;1818279;77;22066;-77
2021/07/08 07:10:40;;;;;;;6.20;5.62;;;;;;;23.97;66.98;93779.80;1806614;77;21077;-78
2021/07/08 07:13:12;;;;;;;6.72;6.03;;;;;;;23.95;66.23;93783.03;1816700;77;21960;-78
2021/07/08 07:15:41;;;;;;;6.83;6.22;;;;;;;23.96;65.83;93779.66;1784023;77;20958;-77
2021/07/08 07:18:08;;;;;;;7.95;6.40;;;;;;;23.95;66.23;93783.66;1785232;78;21109;-78
2021/07/08 07:20:34;;;;;;;9.18;8.30;;;;;;;23.95;66.54;93778.88;1792314;78;21463;-79
2021/07/08 07:23:01;;;;;;;19.12;7.65;;;;;;;23.99;66.62;93778.06;1780831;80;21454;-77
2021/07/08 07:25:28;;;;;;;8.08;7.35;;;;;;;24.01;65.99;93779.00;1773847;80;20990;-78
2021/07/08 07:27:55;;;;;;;9.35;6.45;;;;;;;24.00;65.81;93784.42;1794254;78;21022;-77
2021/07/08 07:30:25;;;;;;;7.37;6.67;;;;;;;23.96;65.54;93785.98;1782551;78;21076;-79
2021/07/08 07:32:52;;;;;;;13.50;6.90;;;;;;;23.93;65.93;93785.53;1783204;78;20962;-78
2021/07/08 07:35:19;;;;;;;7.17;6.58;;;;;;;23.94;66.35;93783.52;1813516;78;20959;-78
2021/07/08 07:37:46;;;;;;;7.20;6.10;;;;;;;23.97;66.36;93789.52;1761523;80;21019;-79
2021/07/08 07:40:13;;;;;;;7.28;6.20;;;;;;;24.02;65.90;93787.47;1782065;79;20954;-78
2021/07/08 07:42:40;;;;;;;9.90;7.00;;;;;;;24.10;65.33;93780.31;1771528;79;21035;-78
2021/07/08 07:46:36;;;;;;;7.50;6.70;;;;;;;24.33;65.58;93781.53;1878065;74;22454;-78
2021/07/08 07:49:02;;;;;;;10.03;7.58;;;;;;;24.31;65.52;93786.81;1782978;77;21042;-77
2021/07/08 07:51:29;;;;;;;8.90;8.00;;;;;;;24.32;65.53;93790.35;1786266;78;21123;-79
2021/07/08 07:53:58;;;;;;;11.57;9.98;;;;;;;24.33;65.28;93785.70;1805159;78;21044;-77
2021/07/08 07:56:26;;;;;;;8.23;5.87;;;;;;;24.39;65.06;93789.39;1807869;77;21099;-77
2021/07/08 08:01:02;;;;;;;10.93;6.12;;;;;;;24.62;63.65;93788.44;1840695;76;22654;-82
2021/07/08 08:03:30;;;;;;;6.60;6.00;;;;;;;24.61;63.27;93791.08;1817593;78;21033;-78
2021/07/08 08:09:44;;;;;;;6.80;5.80;;;;;;;24.67;64.31;93789.95;1809487;77;21041;-78
2021/07/08 08:12:11;;;;;;;12.40;5.70;;;;;;;24.76;64.31;93784.91;1749008;79;22100;-78
2021/07/08 08:14:37;;;;;;;18.82;8.48;;;;;;;24.80;64.09;93781.94;1736437;80;21093;-79
2021/07/08 08:17:04;;;;;;;10.38;6.60;;;;;;;24.83;64.68;93787.31;1701827;81;21039;-77
2021/07/08 08:19:31;;;;;;;12.65;8.10;;;;;;;24.83;64.10;93792.12;1748250;79;21100;-76
2021/07/08 08:21:57;;;;;;;8.40;6.87;;;;;;;24.75;63.86;93790.94;1750201;80;21080;-77
2021/07/08 08:24:25;;;;;;;7.05;6.35;;;;;;;24.65;63.90;93793.05;1759437;78;21059;-79
2021/07/08 08:26:52;;;;;;;7.97;6.33;;;;;;;24.53;64.45;93797.63;1759020;78;21103;-78
2021/07/08 08:29:24;;;;;;;10.50;6.92;;;;;;;24.45;64.96;93790.91;1773393;79;21518;-76
2021/07/08 08:31:50;;;;;;;8.75;6.70;;;;;;;24.46;66.12;93791.81;1790853;79;21144;-77
2021/07/08 08:34:17;;;;;;;8.75;6.40;;;;;;;24.50;66.39;93788.84;1806927;77;21009;-79
2021/07/08 08:36:45;;;;;;;7.62;6.72;;;;;;;24.56;66.78;93788.34;1773163;78;22360;-81
2021/07/08 08:39:15;;;;;;;6.42;5.92;;;;;;;24.66;65.74;93790.41;1789878;77;21080;-77
2021/07/08 08:41:41;;;;;;;5.60;5.10;;;;;;;24.72;63.84;93787.11;1765609;78;22053;-78
2021/07/08 08:44:09;;;;;;;6.85;5.15;;;;;;;24.78;63.02;93788.59;1771673;80;21133;-77
2021/07/08 08:46:36;;;;;;;6.78;6.08;;;;;;;24.89;61.71;93791.58;1757357;80;22064;-75
2021/07/08 08:49:04;;;;;;;5.67;5.17;;;;;;;25.00;62.12;93787.59;1748326;81;21510;-78
2021/07/08 08:51:30;;;;;;;7.97;6.35;;;;;;;25.10;61.83;93790.47;1758126;80;21042;-78
2021/07/08 08:53:58;;;;;;;6.05;5.55;;;;;;;25.16;61.87;93795.52;1779103;78;20963;-77
2021/07/08 08:56:24;;;;;;;6.62;6.03;;;;;;;25.22;61.59;93793.44;1802923;78;20971;-76
2021/07/08 08:58:50;;;;;;;8.13;6.00;;;;;;;25.17;59.74;93800.45;1781590;77;20934;-78
2021/07/08 09:01:19;;;;;;;6.55;6.05;;;;;;;25.05;60.52;93793.11;1797017;78;21880;-77
2021/07/08 09:03:45;;;;;;;6.60;6.00;;;;;;;24.97;60.63;93795.50;1810555;78;21368;-78
2021/07/08 09:06:16;;;;;;;7.03;6.20;;;;;;;24.90;60.78;93798.69;1772406;79;20962;-78
2021/07/08 09:08:47;;;;;;;6.55;6.00;;;;;;;24.91;60.72;93796.81;1798491;78;20962;-77
2021/07/08 09:11:19;;;;;;;7.85;6.72;;;;;;;24.96;62.33;93795.37;1806605;78;21065;-78
2021/07/08 09:14:02;;;;;;;8.50;7.60;;;;;;;25.06;62.07;93794.03;1796199;78;21076;-75
2021/07/08 09:16:33;;;;;;;6.87;6.28;;;;;;;25.19;61.98;93798.70;1801258;78;21035;-78
2021/07/08 09:19:17;;;;;;;10.15;6.67;;;;;;;25.31;60.64;93801.06;1792415;77;21144;-77
2021/07/08 09:21:52;;;;;;;7.53;6.80;;;;;;;25.33;60.93;93791.59;1766453;78;21033;-75
2021/07/08 09:24:23;;;;;;;6.42;5.80;;;;;;;25.38;62.03;93797.87;1799765;78;21356;-76
2021/07/08 09:27:09;;;;;;;7.67;6.55;;;;;;;25.46;60.59;93798.87;1798786;78;21025;-77
2021/07/08 09:29:48;;;;;;;7.40;6.70;;;;;;;25.47;60.64;93800.42;1806865;78;20909;-76
2021/07/08 09:32:18;;;;;;;6.47;5.95;;;;;;;25.43;60.01;93803.41;1804589;78;21413;-77
2021/07/08 09:37:24;;;;;;;11.38;7.10;;;;;;;25.31;61.59;93798.88;1805787;79;21045;-75
2021/07/08 09:39:59;;;;;;;8.18;6.40;;;;;;;25.32;60.92;93797.03;1797341;78;21067;-76
2021/07/08 09:42:40;;;;;;;6.60;5.97;;;;;;;25.36;61.41;93791.27;1752495;78;20950;-76
2021/07/08 09:45:15;;;;;;;8.60;6.35;;;;;;;25.37;61.12;93786.59;1733729;80;21073;-75
2021/07/08 09:47:43;;;;;;;7.95;6.70;;;;;;;25.34;60.84;93797.92;1797493;78;21598;-75
2021/07/08 09:50:12;;;;;;;6.55;5.95;;;;;;;25.21;60.05;93792.67;1804213;78;21948;-77
2021/07/08 09:52:39;;;;;;;10.85;6.65;;;;;;;25.07;59.76;93786.45;1780406;79;21485;-78
2021/07/08 09:57:45;;;;;;;7.05;6.35;;;;;;;25.08;61.21;93779.01;1768624;78;21130;-77
2021/07/08 10:00:22;;;;;;;6.47;5.67;;;;;;;25.16;62.00;93782.98;1716681;80;25454;-77
2021/07/08 10:02:50;;;;;;;9.30;6.95;;;;;;;25.28;60.53;93792.91;1832101;77;21106;-77
2021/07/08 10:05:18;;;;;;;9.48;6.40;;;;;;;25.22;59.38;93788.63;1813004;77;21297;-78
2021/07/08 10:07:47;;;;;;;6.80;6.17;;;;;;;25.10;59.41;93786.92;1800999;77;21530;-78
2021/07/08 10:10:16;;;;;;;9.28;6.17;;;;;;;24.98;59.49;93787.33;1826864;76;21316;-76
2021/07/08 10:12:47;;;;;;;8.00;6.30;;;;;;;24.89;60.28;93790.19;1808020;76;21024;-78
2021/07/08 10:15:14;;;;;;;9.93;6.95;;;;;;;24.86;61.32;93796.70;1828538;75;21060;-77
2021/07/08 10:17:42;;;;;;;8.55;6.65;;;;;;;24.81;61.37;93792.58;1833712;75;21033;-77
2021/07/08 10:20:14;;;;;;;11.10;7.80;;;;;;;24.75;60.61;93788.16;1742803;80;21371;-77
2021/07/08 10:22:40;;;;;;;7.12;6.47;;;;;;;24.70;61.88;93790.36;1736523;82;22087;-77
2021/07/08 10:25:10;;;;;;;8.23;6.85;;;;;;;24.67;61.98;93791.94;1812728;77;21084;-76
2021/07/08 10:27:37;;;;;;;6.40;5.78;;;;;;;24.63;60.47;93788.58;1843146;76;21073;-77
2021/07/08 10:30:06;;;;;;;6.72;5.95;;;;;;;24.59;59.91;93785.21;1815150;77;21142;-76
2021/07/08 10:32:34;;;;;;;8.93;6.83;;;;;;;24.57;60.73;93789.87;1800565;77;21695;-79
2021/07/08 10:35:00;;;;;;;7.33;6.62;;;;;;;24.56;61.73;93786.95;1782558;78;20884;-79
2021/07/08 10:37:36;;;;;;;6.50;5.85;;;;;;;24.55;62.15;93786.79;1816719;77;20878;-81
2021/07/08 10:40:00;;;;;;;6.80;6.20;;;;;;;24.51;61.60;93789.61;1783117;78;20938;-78
2021/07/08 10:42:49;;;;;;;6.70;6.03;;;;;;;24.45;61.37;93785.34;1791298;77;21317;-79
2021/07/08 10:45:39;;;;;;;6.53;5.92;;;;;;;24.39;62.15;93783.84;1787297;78;20972;-79
2021/07/08 10:48:12;;;;;;;11.75;6.45;;;;;;;24.34;61.95;93790.66;1787313;77;20957;-82
2021/07/08 10:50:48;;;;;;;11.18;7.62;;;;;;;24.28;61.22;93780.81;1772876;77;21199;-76
2021/07/08 10:53:18;;;;;;;7.00;6.17;;;;;;;24.21;62.26;93775.61;1800152;79;21066;-77
2021/07/08 10:55:50;;;;;;;6.58;5.95;;;;;;;24.18;61.37;93771.80;1827344;77;21162;-78
2021/07/08 10:58:43;;;;;;;6.70;6.10;;;;;;;24.17;61.84;93780.58;1857322;75;21159;-74
2021/07/08 11:01:28;;;;;;;8.33;6.90;;;;;;;24.19;62.88;93776.09;1800247;77;21417;-77
2021/07/08 11:04:03;;;;;;;8.00;6.30;;;;;;;24.27;63.17;93777.12;1779489;79;21060;-77
2021/07/08 11:06:37;;;;;;;11.78;6.50;;;;;;;24.42;62.98;93773.16;1786215;78;21086;-79
2021/07/08 11:09:19;;;;;;;7.75;5.80;;;;;;;24.57;63.18;93777.36;1790181;79;21185;-78
2021/07/08 11:11:52;;;;;;;6.40;5.80;;;;;;;24.62;60.85;93773.91;1843504;76;21523;-78
2021/07/08 11:17:03;;;;;;;9.15;6.20;;;;;;;24.61;61.52;93774.40;1828911;77;21030;-77
2021/07/08 11:19:37;;;;;;;7.65;6.90;;;;;;;24.58;62.03;93771.94;1832782;77;21600;-78
2021/07/08 11:22:17;;;;;;;9.15;6.75;;;;;;;24.55;62.69;93774.28;1793083;77;21494;-77
2021/07/08 11:24:48;;;;;;;9.90;6.17;;;;;;;24.58;62.40;93775.34;1827587;75;20931;-77
2021/07/08 11:27:17;;;;;;;6.53;5.92;;;;;;;24.64;61.81;93776.99;1803247;77;20971;-77
2021/07/08 11:29:50;;;;;;;6.37;5.70;;;;;;;24.69;61.09;93775.55;1782289;78;21408;-78
2021/07/08 11:32:39;;;;;;;6.63;6.00;;;;;;;24.75;62.57;93774.25;1800360;78;21541;-78
2021/07/08 11:35:16;;;;;;;7.87;5.97;;;;;;;24.87;61.78;93773.98;1762921;80;21140;-76
2021/07/08 11:37:44;;;;;;;8.23;6.50;;;;;;;24.99;60.81;93771.40;1802650;78;21263;-75
2021/07/08 11:40:13;;;;;;;6.83;6.05;;;;;;;25.00;61.21;93771.53;1781760;79;20986;-79
2021/07/08 11:42:41;;;;;;;7.70;6.30;;;;;;;24.98;61.13;93770.64;1803475;77;21002;-76
2021/07/08 11:45:15;;;;;;;9.05;8.15;;;;;;;24.96;60.61;93766.16;1788907;78;21555;-76
2021/07/08 11:47:49;;;;;;;6.83;6.08;;;;;;;24.93;61.30;93765.09;1785855;77;21624;-79
2021/07/08 11:53:17;;;;;;;6.72;5.67;;;;;;;24.81;61.04;93757.81;1696398;81;20201;-76
2021/07/08 11:55:47;;;;;;;9.05;6.72;;;;;;;24.74;61.37;93765.77;1720861;80;21051;-78
2021/07/08 11:58:21;;;;;;;6.72;6.03;;;;;;;24.67;61.78;93766.31;1768600;77;21037;-77
2021/07/08 12:00:48;;;;;;;7.40;6.05;;;;;;;24.64;62.47;93770.67;1808300;77;21283;-80